sensor_id;sensor_type;location;lat;lon;timestamp;P1;durP1;ratioP1;P2;durP2;ratioP2
11588;SDS011;5850;51.360;12.362;2022-10-04T00:09:42;9.20;;;2.50;;
11588;SDS011;5850;51.360;12.362;2022-10-04T00:12:25;5.00;;;1.73;;
11588;SDS011;5850;51.360;12.362;2022-10-04T00:14:55;3.60;;;1.90;;
11588;SDS011;5850;51.360;12.362;2022-10-04T00:17:28;3.97;;;1.87;;
11588;SDS011;5850;51.360;12.362;2022-10-04T00:20:01;3.93;;;1.70;;
11588;SDS011;5850;51.360;12.362;2022-10-04T00:22:36;2.77;;;1.50;;
11588;SDS011;5850;51.360;12.362;2022-10-04T00:25:51;2.93;;;1.80;;
11588;SDS011;5850;51.360;12.362;2022-10-04T00:28:28;2.43;;;1.57;;
11588;SDS011;5850;51.360;12.362;2022-10-04T00:31:10;6.47;;;2.43;;
11588;SDS011;5850;51.360;12.362;2022-10-04T00:39:25;3.20;;;1.73;;
11588;SDS011;5850;51.360;12.362;2022-10-04T00:49:11;2.53;;;1.60;;
11588;SDS011;5850;51.360;12.362;2022-10-04T00:51:41;1.87;;;1.70;;
11588;SDS011;5850;51.360;12.362;2022-10-04T00:54:28;4.60;;;2.03;;
11588;SDS011;5850;51.360;12.362;2022-10-04T00:57:08;5.93;;;1.90;;
11588;SDS011;5850;51.360;12.362;2022-10-04T01:02:17;3.10;;;1.70;;
11588;SDS011;5850;51.360;12.362;2022-10-04T01:04:52;3.67;;;1.80;;
11588;SDS011;5850;51.360;12.362;2022-10-04T01:07:30;3.10;;;1.50;;
11588;SDS011;5850;51.360;12.362;2022-10-04T01:10:07;3.53;;;1.90;;
11588;SDS011;5850;51.360;12.362;2022-10-04T01:13:11;5.77;;;1.73;;
11588;SDS011;5850;51.360;12.362;2022-10-04T01:18:45;4.23;;;1.70;;
11588;SDS011;5850;51.360;12.362;2022-10-04T01:31:37;3.17;;;1.43;;
11588;SDS011;5850;51.360;12.362;2022-10-04T01:34:12;3.03;;;1.80;;
11588;SDS011;5850;51.360;12.362;2022-10-04T01:36:53;2.60;;;1.50;;
11588;SDS011;5850;51.360;12.362;2022-10-04T01:39:25;2.83;;;1.80;;
11588;SDS011;5850;51.360;12.362;2022-10-04T01:47:28;3.27;;;1.57;;
11588;SDS011;5850;51.360;12.362;2022-10-04T01:50:14;2.87;;;1.97;;
11588;SDS011;5850;51.360;12.362;2022-10-04T01:52:52;3.63;;;1.63;;
11588;SDS011;5850;51.360;12.362;2022-10-04T01:55:28;4.83;;;1.70;;
11588;SDS011;5850;51.360;12.362;2022-10-04T01:58:11;3.27;;;1.77;;
11588;SDS011;5850;51.360;12.362;2022-10-04T02:01:04;4.13;;;1.80;;
11588;SDS011;5850;51.360;12.362;2022-10-04T02:03:54;4.20;;;1.70;;
11588;SDS011;5850;51.360;12.362;2022-10-04T02:06:29;4.77;;;1.63;;
11588;SDS011;5850;51.360;12.362;2022-10-04T02:09:07;4.53;;;1.80;;
11588;SDS011;5850;51.360;12.362;2022-10-04T02:11:39;4.30;;;1.70;;
11588;SDS011;5850;51.360;12.362;2022-10-04T02:14:13;4.33;;;1.73;;
11588;SDS011;5850;51.360;12.362;2022-10-04T02:16:45;5.80;;;2.10;;
11588;SDS011;5850;51.360;12.362;2022-10-04T02:19:22;2.90;;;1.77;;
11588;SDS011;5850;51.360;12.362;2022-10-04T02:22:00;4.43;;;1.73;;
11588;SDS011;5850;51.360;12.362;2022-10-04T02:24:34;2.73;;;1.63;;
11588;SDS011;5850;51.360;12.362;2022-10-04T02:27:06;2.20;;;1.50;;
11588;SDS011;5850;51.360;12.362;2022-10-04T02:29:35;4.33;;;1.90;;
11588;SDS011;5850;51.360;12.362;2022-10-04T02:32:04;5.60;;;2.00;;
11588;SDS011;5850;51.360;12.362;2022-10-04T02:34:51;5.93;;;1.80;;
11588;SDS011;5850;51.360;12.362;2022-10-04T02:37:21;3.20;;;1.97;;
11588;SDS011;5850;51.360;12.362;2022-10-04T02:39:53;2.90;;;1.50;;
11588;SDS011;5850;51.360;12.362;2022-10-04T02:42:40;3.73;;;1.73;;
11588;SDS011;5850;51.360;12.362;2022-10-04T02:48:38;7.40;;;2.30;;
11588;SDS011;5850;51.360;12.362;2022-10-04T02:54:02;4.80;;;2.30;;
11588;SDS011;5850;51.360;12.362;2022-10-04T02:56:54;4.73;;;2.20;;
11588;SDS011;5850;51.360;12.362;2022-10-04T02:59:23;3.83;;;2.30;;
11588;SDS011;5850;51.360;12.362;2022-10-04T03:01:56;5.10;;;2.40;;
11588;SDS011;5850;51.360;12.362;2022-10-04T03:04:27;4.57;;;2.37;;
11588;SDS011;5850;51.360;12.362;2022-10-04T03:07:05;3.43;;;2.60;;
11588;SDS011;5850;51.360;12.362;2022-10-04T03:09:35;5.60;;;2.63;;
11588;SDS011;5850;51.360;12.362;2022-10-04T03:12:07;6.93;;;2.63;;
11588;SDS011;5850;51.360;12.362;2022-10-04T03:14:39;7.27;;;2.90;;
11588;SDS011;5850;51.360;12.362;2022-10-04T03:17:07;6.43;;;2.73;;
11588;SDS011;5850;51.360;12.362;2022-10-04T03:19:36;7.43;;;2.80;;
11588;SDS011;5850;51.360;12.362;2022-10-04T03:22:08;4.97;;;2.67;;
11588;SDS011;5850;51.360;12.362;2022-10-04T03:24:42;4.80;;;2.60;;
11588;SDS011;5850;51.360;12.362;2022-10-04T03:27:21;5.23;;;2.70;;
11588;SDS011;5850;51.360;12.362;2022-10-04T03:29:52;6.73;;;2.80;;
11588;SDS011;5850;51.360;12.362;2022-10-04T03:32:24;6.17;;;3.50;;
11588;SDS011;5850;51.360;12.362;2022-10-04T03:37:28;3.90;;;2.63;;
11588;SDS011;5850;51.360;12.362;2022-10-04T03:39:58;4.60;;;2.33;;
11588;SDS011;5850;51.360;12.362;2022-10-04T03:42:29;4.20;;;2.10;;
11588;SDS011;5850;51.360;12.362;2022-10-04T03:45:10;6.33;;;2.37;;
11588;SDS011;5850;51.360;12.362;2022-10-04T03:47:44;5.60;;;2.53;;
11588;SDS011;5850;51.360;12.362;2022-10-04T03:50:20;4.10;;;2.50;;
11588;SDS011;5850;51.360;12.362;2022-10-04T03:52:52;5.67;;;2.60;;
11588;SDS011;5850;51.360;12.362;2022-10-04T03:55:35;6.43;;;2.73;;
11588;SDS011;5850;51.360;12.362;2022-10-04T03:58:09;4.47;;;2.60;;
11588;SDS011;5850;51.360;12.362;2022-10-04T04:00:47;5.07;;;2.47;;
11588;SDS011;5850;51.360;12.362;2022-10-04T04:07:02;5.13;;;2.60;;
11588;SDS011;5850;51.360;12.362;2022-10-04T04:12:03;5.40;;;2.80;;
11588;SDS011;5850;51.360;12.362;2022-10-04T04:14:48;7.20;;;2.60;;
11588;SDS011;5850;51.360;12.362;2022-10-04T04:19:53;5.53;;;2.43;;
11588;SDS011;5850;51.360;12.362;2022-10-04T04:22:32;2.93;;;2.10;;
11588;SDS011;5850;51.360;12.362;2022-10-04T04:25:03;4.73;;;2.20;;
11588;SDS011;5850;51.360;12.362;2022-10-04T04:27:37;5.37;;;2.73;;
11588;SDS011;5850;51.360;12.362;2022-10-04T04:30:11;6.23;;;2.80;;
11588;SDS011;5850;51.360;12.362;2022-10-04T04:32:45;4.27;;;2.47;;
11588;SDS011;5850;51.360;12.362;2022-10-04T04:35:29;5.03;;;2.90;;
11588;SDS011;5850;51.360;12.362;2022-10-04T04:40:44;3.77;;;2.57;;
11588;SDS011;5850;51.360;12.362;2022-10-04T04:43:15;4.67;;;2.23;;
11588;SDS011;5850;51.360;12.362;2022-10-04T04:45:46;3.13;;;2.60;;
11588;SDS011;5850;51.360;12.362;2022-10-04T04:48:36;3.20;;;2.20;;
11588;SDS011;5850;51.360;12.362;2022-10-04T04:51:04;7.63;;;2.93;;
11588;SDS011;5850;51.360;12.362;2022-10-04T04:53:33;7.33;;;2.40;;
11588;SDS011;5850;51.360;12.362;2022-10-04T04:56:02;6.80;;;2.90;;
11588;SDS011;5850;51.360;12.362;2022-10-04T04:58:41;5.87;;;2.70;;
11588;SDS011;5850;51.360;12.362;2022-10-04T05:01:27;4.47;;;2.67;;
11588;SDS011;5850;51.360;12.362;2022-10-04T05:06:29;4.67;;;2.50;;
11588;SDS011;5850;51.360;12.362;2022-10-04T05:08:59;6.13;;;2.43;;
11588;SDS011;5850;51.360;12.362;2022-10-04T05:11:28;4.60;;;2.10;;
11588;SDS011;5850;51.360;12.362;2022-10-04T05:14:08;5.23;;;2.87;;
11588;SDS011;5850;51.360;12.362;2022-10-04T05:16:42;5.27;;;2.90;;
11588;SDS011;5850;51.360;12.362;2022-10-04T05:19:22;5.80;;;3.00;;
11588;SDS011;5850;51.360;12.362;2022-10-04T05:21:57;6.87;;;3.50;;
11588;SDS011;5850;51.360;12.362;2022-10-04T05:24:30;6.73;;;2.73;;
11588;SDS011;5850;51.360;12.362;2022-10-04T05:27:02;7.40;;;3.03;;
11588;SDS011;5850;51.360;12.362;2022-10-04T05:29:48;5.20;;;3.40;;
11588;SDS011;5850;51.360;12.362;2022-10-04T05:41:23;6.43;;;2.90;;
11588;SDS011;5850;51.360;12.362;2022-10-04T05:47:28;4.27;;;2.70;;
11588;SDS011;5850;51.360;12.362;2022-10-04T05:49:57;5.47;;;3.00;;
11588;SDS011;5850;51.360;12.362;2022-10-04T05:52:28;4.83;;;2.97;;
11588;SDS011;5850;51.360;12.362;2022-10-04T06:01:20;6.20;;;2.50;;
11588;SDS011;5850;51.360;12.362;2022-10-04T06:07:27;4.67;;;2.80;;
11588;SDS011;5850;51.360;12.362;2022-10-04T06:12:55;6.77;;;2.80;;
11588;SDS011;5850;51.360;12.362;2022-10-04T06:15:48;6.33;;;2.80;;
11588;SDS011;5850;51.360;12.362;2022-10-04T06:23:44;6.57;;;3.07;;
11588;SDS011;5850;51.360;12.362;2022-10-04T06:26:24;10.33;;;2.77;;
11588;SDS011;5850;51.360;12.362;2022-10-04T06:29:10;8.07;;;2.77;;
11588;SDS011;5850;51.360;12.362;2022-10-04T06:49:50;6.53;;;2.90;;
11588;SDS011;5850;51.360;12.362;2022-10-04T06:52:37;6.93;;;2.87;;
11588;SDS011;5850;51.360;12.362;2022-10-04T07:07:33;6.47;;;3.60;;
11588;SDS011;5850;51.360;12.362;2022-10-04T07:13:29;9.43;;;3.90;;
11588;SDS011;5850;51.360;12.362;2022-10-04T07:16:23;5.03;;;3.23;;
11588;SDS011;5850;51.360;12.362;2022-10-04T07:24:50;8.53;;;2.87;;
11588;SDS011;5850;51.360;12.362;2022-10-04T07:30:44;4.80;;;2.67;;
11588;SDS011;5850;51.360;12.362;2022-10-04T07:33:20;6.87;;;2.73;;
11588;SDS011;5850;51.360;12.362;2022-10-04T07:35:57;4.43;;;2.57;;
11588;SDS011;5850;51.360;12.362;2022-10-04T07:38:41;4.07;;;2.37;;
11588;SDS011;5850;51.360;12.362;2022-10-04T07:41:21;9.97;;;2.97;;
11588;SDS011;5850;51.360;12.362;2022-10-04T07:49:49;5.83;;;2.20;;
11588;SDS011;5850;51.360;12.362;2022-10-04T07:55:10;9.10;;;2.43;;
11588;SDS011;5850;51.360;12.362;2022-10-04T07:58:10;5.37;;;2.30;;
11588;SDS011;5850;51.360;12.362;2022-10-04T08:07:19;4.27;;;2.50;;
11588;SDS011;5850;51.360;12.362;2022-10-04T08:10:39;5.13;;;2.50;;
11588;SDS011;5850;51.360;12.362;2022-10-04T08:19:05;5.17;;;2.07;;
11588;SDS011;5850;51.360;12.362;2022-10-04T08:27:00;5.03;;;2.20;;
11588;SDS011;5850;51.360;12.362;2022-10-04T08:30:18;7.93;;;2.60;;
11588;SDS011;5850;51.360;12.362;2022-10-04T08:45:16;6.90;;;3.00;;
11588;SDS011;5850;51.360;12.362;2022-10-04T08:57:09;5.03;;;2.63;;
11588;SDS011;5850;51.360;12.362;2022-10-04T09:05:52;7.43;;;2.83;;
11588;SDS011;5850;51.360;12.362;2022-10-04T09:15:22;8.13;;;3.07;;
11588;SDS011;5850;51.360;12.362;2022-10-04T09:18:22;5.53;;;2.80;;
11588;SDS011;5850;51.360;12.362;2022-10-04T09:21:26;6.93;;;2.40;;
11588;SDS011;5850;51.360;12.362;2022-10-04T09:30:19;9.83;;;3.47;;
11588;SDS011;5850;51.360;12.362;2022-10-04T09:38:39;7.90;;;2.90;;
11588;SDS011;5850;51.360;12.362;2022-10-04T09:41:49;4.97;;;2.50;;
11588;SDS011;5850;51.360;12.362;2022-10-04T09:51:01;5.00;;;2.73;;
11588;SDS011;5850;51.360;12.362;2022-10-04T09:53:39;5.17;;;2.43;;
11588;SDS011;5850;51.360;12.362;2022-10-04T10:15:18;5.47;;;2.50;;
11588;SDS011;5850;51.360;12.362;2022-10-04T10:23:50;8.27;;;3.90;;
11588;SDS011;5850;51.360;12.362;2022-10-04T10:45:00;2.70;;;1.73;;
11588;SDS011;5850;51.360;12.362;2022-10-04T10:54:57;4.80;;;2.00;;
11588;SDS011;5850;51.360;12.362;2022-10-04T11:06:14;4.60;;;1.50;;
11588;SDS011;5850;51.360;12.362;2022-10-04T11:09:31;2.93;;;1.57;;
11588;SDS011;5850;51.360;12.362;2022-10-04T11:25:42;4.97;;;2.17;;
11588;SDS011;5850;51.360;12.362;2022-10-04T11:28:48;5.40;;;1.97;;
11588;SDS011;5850;51.360;12.362;2022-10-04T11:44:56;7.67;;;3.67;;
11588;SDS011;5850;51.360;12.362;2022-10-04T12:14:21;3.97;;;1.63;;
11588;SDS011;5850;51.360;12.362;2022-10-04T12:28:04;2.53;;;1.70;;
11588;SDS011;5850;51.360;12.362;2022-10-04T12:34:03;2.13;;;1.43;;
11588;SDS011;5850;51.360;12.362;2022-10-04T12:40:02;5.37;;;2.17;;
11588;SDS011;5850;51.360;12.362;2022-10-04T13:01:25;3.67;;;1.83;;
11588;SDS011;5850;51.360;12.362;2022-10-04T13:15:56;3.67;;;1.50;;
11588;SDS011;5850;51.360;12.362;2022-10-04T13:42:34;4.60;;;2.10;;
11588;SDS011;5850;51.360;12.362;2022-10-04T13:54:39;3.17;;;1.97;;
11588;SDS011;5850;51.360;12.362;2022-10-04T13:57:41;4.43;;;1.87;;
11588;SDS011;5850;51.360;12.362;2022-10-04T14:29:59;5.03;;;1.83;;
11588;SDS011;5850;51.360;12.362;2022-10-04T14:35:30;3.70;;;1.20;;
11588;SDS011;5850;51.360;12.362;2022-10-04T14:50:31;4.10;;;2.20;;
11588;SDS011;5850;51.360;12.362;2022-10-04T14:56:10;3.37;;;2.10;;
11588;SDS011;5850;51.360;12.362;2022-10-04T15:01:39;2.50;;;1.60;;
11588;SDS011;5850;51.360;12.362;2022-10-04T15:07:17;4.03;;;1.50;;
11588;SDS011;5850;51.360;12.362;2022-10-04T15:10:09;2.60;;;1.60;;
11588;SDS011;5850;51.360;12.362;2022-10-04T15:23:59;3.90;;;1.87;;
11588;SDS011;5850;51.360;12.362;2022-10-04T15:44:41;3.70;;;2.07;;
11588;SDS011;5850;51.360;12.362;2022-10-04T15:46:49;4.27;;;1.83;;
11588;SDS011;5850;51.360;12.362;2022-10-04T15:58:13;3.50;;;1.43;;
11588;SDS011;5850;51.360;12.362;2022-10-04T16:01:33;6.00;;;1.70;;
11588;SDS011;5850;51.360;12.362;2022-10-04T16:04:40;2.83;;;1.37;;
11588;SDS011;5850;51.360;12.362;2022-10-04T16:13:52;2.60;;;1.30;;
11588;SDS011;5850;51.360;12.362;2022-10-04T16:22:30;4.40;;;1.73;;
11588;SDS011;5850;51.360;12.362;2022-10-04T16:27:56;3.97;;;1.87;;
11588;SDS011;5850;51.360;12.362;2022-10-04T16:45:33;5.40;;;2.03;;
11588;SDS011;5850;51.360;12.362;2022-10-04T16:58:58;4.63;;;2.03;;
11588;SDS011;5850;51.360;12.362;2022-10-04T17:16:23;5.10;;;2.07;;
11588;SDS011;5850;51.360;12.362;2022-10-04T17:22:22;5.33;;;2.70;;
11588;SDS011;5850;51.360;12.362;2022-10-04T17:25:27;7.97;;;2.87;;
11588;SDS011;5850;51.360;12.362;2022-10-04T17:28:15;6.37;;;2.10;;
11588;SDS011;5850;51.360;12.362;2022-10-04T17:31:26;6.07;;;2.20;;
11588;SDS011;5850;51.360;12.362;2022-10-04T17:34:12;2.27;;;1.90;;
11588;SDS011;5850;51.360;12.362;2022-10-04T17:46:22;5.97;;;2.90;;
11588;SDS011;5850;51.360;12.362;2022-10-04T17:52:12;7.70;;;3.30;;
11588;SDS011;5850;51.360;12.362;2022-10-04T17:55:16;6.70;;;2.77;;
11588;SDS011;5850;51.360;12.362;2022-10-04T17:57:50;6.03;;;2.73;;
11588;SDS011;5850;51.360;12.362;2022-10-04T18:00:49;8.03;;;2.80;;
11588;SDS011;5850;51.360;12.362;2022-10-04T18:03:58;4.20;;;2.80;;
11588;SDS011;5850;51.360;12.362;2022-10-04T18:09:44;4.33;;;3.00;;
11588;SDS011;5850;51.360;12.362;2022-10-04T18:15:29;3.73;;;2.87;;
11588;SDS011;5850;51.360;12.362;2022-10-04T18:18:11;2.90;;;2.60;;
11588;SDS011;5850;51.360;12.362;2022-10-04T18:20:46;4.27;;;3.00;;
11588;SDS011;5850;51.360;12.362;2022-10-04T18:23:23;3.87;;;2.83;;
11588;SDS011;5850;51.360;12.362;2022-10-04T18:26:29;4.57;;;3.03;;
11588;SDS011;5850;51.360;12.362;2022-10-04T18:28:51;7.17;;;3.20;;
11588;SDS011;5850;51.360;12.362;2022-10-04T18:31:38;6.13;;;3.17;;
11588;SDS011;5850;51.360;12.362;2022-10-04T18:34:15;3.93;;;3.33;;
11588;SDS011;5850;51.360;12.362;2022-10-04T18:39:48;5.93;;;3.57;;
11588;SDS011;5850;51.360;12.362;2022-10-04T18:42:23;3.50;;;3.20;;
11588;SDS011;5850;51.360;12.362;2022-10-04T18:45:15;5.73;;;3.50;;
11588;SDS011;5850;51.360;12.362;2022-10-04T18:47:45;5.63;;;3.77;;
11588;SDS011;5850;51.360;12.362;2022-10-04T18:56:15;8.53;;;4.00;;
11588;SDS011;5850;51.360;12.362;2022-10-04T19:02:04;4.57;;;3.30;;
11588;SDS011;5850;51.360;12.362;2022-10-04T19:07:51;5.67;;;3.33;;
11588;SDS011;5850;51.360;12.362;2022-10-04T19:16:41;4.90;;;2.90;;
11588;SDS011;5850;51.360;12.362;2022-10-04T19:28:05;4.23;;;3.07;;
11588;SDS011;5850;51.360;12.362;2022-10-04T19:30:53;6.57;;;3.00;;
11588;SDS011;5850;51.360;12.362;2022-10-04T19:42:36;3.33;;;3.03;;
11588;SDS011;5850;51.360;12.362;2022-10-04T19:45:30;5.80;;;3.60;;
11588;SDS011;5850;51.360;12.362;2022-10-04T19:48:18;6.30;;;3.10;;
11588;SDS011;5850;51.360;12.362;2022-10-04T19:54:22;4.73;;;3.20;;
11588;SDS011;5850;51.360;12.362;2022-10-04T19:56:59;4.53;;;3.20;;
11588;SDS011;5850;51.360;12.362;2022-10-04T19:59:36;6.40;;;3.20;;
11588;SDS011;5850;51.360;12.362;2022-10-04T20:02:08;4.50;;;3.50;;
11588;SDS011;5850;51.360;12.362;2022-10-04T20:04:37;4.07;;;2.90;;
11588;SDS011;5850;51.360;12.362;2022-10-04T20:09:54;3.93;;;3.43;;
11588;SDS011;5850;51.360;12.362;2022-10-04T20:13:02;4.93;;;3.30;;
11588;SDS011;5850;51.360;12.362;2022-10-04T20:15:47;3.43;;;3.13;;
11588;SDS011;5850;51.360;12.362;2022-10-04T20:29:55;4.83;;;3.50;;
11588;SDS011;5850;51.360;12.362;2022-10-04T20:34:55;9.37;;;4.77;;
11588;SDS011;5850;51.360;12.362;2022-10-04T20:40:53;6.70;;;4.50;;
11588;SDS011;5850;51.360;12.362;2022-10-04T20:45:45;5.07;;;4.00;;
11588;SDS011;5850;51.360;12.362;2022-10-04T20:48:19;5.83;;;4.00;;
11588;SDS011;5850;51.360;12.362;2022-10-04T20:50:51;5.03;;;4.20;;
11588;SDS011;5850;51.360;12.362;2022-10-04T20:53:21;8.80;;;4.40;;
11588;SDS011;5850;51.360;12.362;2022-10-04T20:56:08;4.77;;;3.90;;
11588;SDS011;5850;51.360;12.362;2022-10-04T20:58:56;5.40;;;4.57;;
11588;SDS011;5850;51.360;12.362;2022-10-04T21:01:29;5.97;;;3.77;;
11588;SDS011;5850;51.360;12.362;2022-10-04T21:06:59;10.67;;;3.83;;
11588;SDS011;5850;51.360;12.362;2022-10-04T21:09:33;7.17;;;3.93;;
11588;SDS011;5850;51.360;12.362;2022-10-04T21:12:04;5.97;;;3.70;;
11588;SDS011;5850;51.360;12.362;2022-10-04T21:14:34;6.60;;;3.87;;
11588;SDS011;5850;51.360;12.362;2022-10-04T21:17:31;6.80;;;4.03;;
11588;SDS011;5850;51.360;12.362;2022-10-04T21:19:55;4.00;;;3.60;;
11588;SDS011;5850;51.360;12.362;2022-10-04T21:24:56;7.03;;;3.73;;
11588;SDS011;5850;51.360;12.362;2022-10-04T21:27:30;7.00;;;3.70;;
11588;SDS011;5850;51.360;12.362;2022-10-04T21:30:13;4.33;;;3.30;;
11588;SDS011;5850;51.360;12.362;2022-10-04T21:32:44;6.50;;;3.57;;
11588;SDS011;5850;51.360;12.362;2022-10-04T21:35:12;6.47;;;3.33;;
11588;SDS011;5850;51.360;12.362;2022-10-04T21:37:41;4.07;;;3.40;;
11588;SDS011;5850;51.360;12.362;2022-10-04T21:40:09;4.00;;;3.57;;
11588;SDS011;5850;51.360;12.362;2022-10-04T21:42:39;5.37;;;3.47;;
11588;SDS011;5850;51.360;12.362;2022-10-04T21:45:07;7.00;;;3.73;;
11588;SDS011;5850;51.360;12.362;2022-10-04T21:47:36;4.23;;;3.67;;
11588;SDS011;5850;51.360;12.362;2022-10-04T21:50:04;4.07;;;3.43;;
11588;SDS011;5850;51.360;12.362;2022-10-04T21:52:33;5.97;;;3.80;;
11588;SDS011;5850;51.360;12.362;2022-10-04T21:55:01;4.70;;;3.27;;
11588;SDS011;5850;51.360;12.362;2022-10-04T21:57:35;4.53;;;3.40;;
11588;SDS011;5850;51.360;12.362;2022-10-04T22:00:03;6.03;;;3.60;;
11588;SDS011;5850;51.360;12.362;2022-10-04T22:02:33;5.33;;;3.40;;
11588;SDS011;5850;51.360;12.362;2022-10-04T22:05:01;5.97;;;3.20;;
11588;SDS011;5850;51.360;12.362;2022-10-04T22:07:29;4.90;;;2.90;;
11588;SDS011;5850;51.360;12.362;2022-10-04T22:09:58;4.40;;;3.47;;
11588;SDS011;5850;51.360;12.362;2022-10-04T22:12:26;5.13;;;3.17;;
11588;SDS011;5850;51.360;12.362;2022-10-04T22:14:55;4.20;;;3.30;;
11588;SDS011;5850;51.360;12.362;2022-10-04T22:17:23;4.33;;;3.17;;
11588;SDS011;5850;51.360;12.362;2022-10-04T22:19:51;4.27;;;3.10;;
11588;SDS011;5850;51.360;12.362;2022-10-04T22:22:20;6.47;;;3.40;;
11588;SDS011;5850;51.360;12.362;2022-10-04T22:24:48;4.07;;;3.07;;
11588;SDS011;5850;51.360;12.362;2022-10-04T22:27:17;4.53;;;3.13;;
11588;SDS011;5850;51.360;12.362;2022-10-04T22:29:46;4.73;;;3.07;;
11588;SDS011;5850;51.360;12.362;2022-10-04T22:32:20;7.17;;;3.43;;
11588;SDS011;5850;51.360;12.362;2022-10-04T22:34:52;7.90;;;3.60;;
11588;SDS011;5850;51.360;12.362;2022-10-04T22:37:27;4.90;;;3.17;;
11588;SDS011;5850;51.360;12.362;2022-10-04T22:39:57;5.53;;;3.50;;
11588;SDS011;5850;51.360;12.362;2022-10-04T22:42:27;7.03;;;3.47;;
11588;SDS011;5850;51.360;12.362;2022-10-04T22:45:00;3.43;;;2.83;;
11588;SDS011;5850;51.360;12.362;2022-10-04T22:47:28;6.83;;;3.30;;
11588;SDS011;5850;51.360;12.362;2022-10-04T22:49:58;6.90;;;3.70;;
11588;SDS011;5850;51.360;12.362;2022-10-04T22:52:26;6.03;;;3.00;;
11588;SDS011;5850;51.360;12.362;2022-10-04T22:54:56;6.80;;;3.07;;
11588;SDS011;5850;51.360;12.362;2022-10-04T22:57:28;5.27;;;2.90;;
11588;SDS011;5850;51.360;12.362;2022-10-04T22:59:56;4.40;;;3.37;;
11588;SDS011;5850;51.360;12.362;2022-10-04T23:02:28;4.00;;;2.80;;
11588;SDS011;5850;51.360;12.362;2022-10-04T23:04:59;5.53;;;3.10;;
11588;SDS011;5850;51.360;12.362;2022-10-04T23:07:38;5.33;;;2.93;;
11588;SDS011;5850;51.360;12.362;2022-10-04T23:10:06;4.40;;;2.97;;
11588;SDS011;5850;51.360;12.362;2022-10-04T23:12:35;4.77;;;2.80;;
11588;SDS011;5850;51.360;12.362;2022-10-04T23:15:06;3.90;;;3.00;;
11588;SDS011;5850;51.360;12.362;2022-10-04T23:17:39;7.40;;;3.07;;
11588;SDS011;5850;51.360;12.362;2022-10-04T23:22:39;5.07;;;2.73;;
11588;SDS011;5850;51.360;12.362;2022-10-04T23:25:32;5.37;;;2.70;;
11588;SDS011;5850;51.360;12.362;2022-10-04T23:28:02;2.73;;;2.53;;
11588;SDS011;5850;51.360;12.362;2022-10-04T23:30:40;3.43;;;2.63;;
11588;SDS011;5850;51.360;12.362;2022-10-04T23:33:18;4.67;;;3.10;;
11588;SDS011;5850;51.360;12.362;2022-10-04T23:35:48;5.00;;;2.93;;
11588;SDS011;5850;51.360;12.362;2022-10-04T23:38:18;7.07;;;3.00;;
11588;SDS011;5850;51.360;12.362;2022-10-04T23:40:47;4.50;;;2.83;;
11588;SDS011;5850;51.360;12.362;2022-10-04T23:43:17;5.37;;;3.07;;
11588;SDS011;5850;51.360;12.362;2022-10-04T23:45:54;4.67;;;2.80;;
11588;SDS011;5850;51.360;12.362;2022-10-04T23:48:24;3.83;;;2.80;;
11588;SDS011;5850;51.360;12.362;2022-10-04T23:50:54;3.37;;;2.50;;
11588;SDS011;5850;51.360;12.362;2022-10-04T23:53:26;2.97;;;2.50;;
11588;SDS011;5850;51.360;12.362;2022-10-04T23:56:00;5.00;;;2.83;;
11588;SDS011;5850;51.360;12.362;2022-10-04T23:58:33;4.37;;;2.60;;
